sensor_id;sensor_type;location;lat;lon;timestamp;P1;durP1;ratioP1;P2;durP2;ratioP2
71665;SDS011;59503;53.486;10.196;2024-03-23T00:54:51;27.27;;;3.03;;
71665;SDS011;59503;53.486;10.196;2024-03-23T00:57:16;22.23;;;2.20;;
71665;SDS011;59503;53.486;10.196;2024-03-23T00:59:42;24.37;;;3.57;;
71665;SDS011;59503;53.486;10.196;2024-03-23T01:02:07;16.90;;;2.10;;
71665;SDS011;59503;53.486;10.196;2024-03-23T01:04:32;18.23;;;2.83;;
71665;SDS011;59503;53.486;10.196;2024-03-23T01:06:58;20.83;;;2.90;;
71665;SDS011;59503;53.486;10.196;2024-03-23T01:09:23;21.23;;;2.63;;
71665;SDS011;59503;53.486;10.196;2024-03-23T01:11:49;24.53;;;2.67;;
71665;SDS011;59503;53.486;10.196;2024-03-23T01:14:14;36.40;;;3.80;;
71665;SDS011;59503;53.486;10.196;2024-03-23T01:16:39;27.67;;;3.25;;
71665;SDS011;59503;53.486;10.196;2024-03-23T01:19:05;28.83;;;2.50;;
71665;SDS011;59503;53.486;10.196;2024-03-23T01:21:31;19.38;;;2.92;;
71665;SDS011;59503;53.486;10.196;2024-03-23T01:23:56;34.83;;;4.63;;
71665;SDS011;59503;53.486;10.196;2024-03-23T01:26:22;32.83;;;3.27;;
71665;SDS011;59503;53.486;10.196;2024-03-23T01:28:47;23.07;;;2.50;;
71665;SDS011;59503;53.486;10.196;2024-03-23T01:31:13;30.05;;;4.35;;
71665;SDS011;59503;53.486;10.196;2024-03-23T01:33:38;28.03;;;3.57;;
71665;SDS011;59503;53.486;10.196;2024-03-23T01:36:03;27.27;;;2.80;;
71665;SDS011;59503;53.486;10.196;2024-03-23T01:38:29;38.60;;;3.80;;
71665;SDS011;59503;53.486;10.196;2024-03-23T01:40:56;33.13;;;3.27;;
71665;SDS011;59503;53.486;10.196;2024-03-23T01:43:25;35.15;;;3.67;;
71665;SDS011;59503;53.486;10.196;2024-03-23T01:45:50;22.23;;;3.80;;
71665;SDS011;59503;53.486;10.196;2024-03-23T01:48:18;21.17;;;2.60;;
71665;SDS011;59503;53.486;10.196;2024-03-23T01:50:45;14.00;;;2.63;;
71665;SDS011;59503;53.486;10.196;2024-03-23T01:53:10;18.60;;;3.77;;
71665;SDS011;59503;53.486;10.196;2024-03-23T01:55:36;24.60;;;3.17;;
71665;SDS011;59503;53.486;10.196;2024-03-23T01:58:04;11.98;;;2.30;;
71665;SDS011;59503;53.486;10.196;2024-03-23T02:00:29;20.80;;;3.33;;
71665;SDS011;59503;53.486;10.196;2024-03-23T02:02:54;25.30;;;2.80;;
71665;SDS011;59503;53.486;10.196;2024-03-23T02:05:20;32.55;;;3.45;;
71665;SDS011;59503;53.486;10.196;2024-03-23T02:07:46;31.87;;;3.03;;
71665;SDS011;59503;53.486;10.196;2024-03-23T02:10:11;37.42;;;2.95;;
71665;SDS011;59503;53.486;10.196;2024-03-23T02:12:40;25.37;;;3.43;;
71665;SDS011;59503;53.486;10.196;2024-03-23T02:15:05;13.32;;;2.67;;
71665;SDS011;59503;53.486;10.196;2024-03-23T02:17:32;18.37;;;2.60;;
71665;SDS011;59503;53.486;10.196;2024-03-23T02:19:59;22.65;;;2.70;;
71665;SDS011;59503;53.486;10.196;2024-03-23T02:22:25;25.20;;;3.13;;
71665;SDS011;59503;53.486;10.196;2024-03-23T02:24:50;21.57;;;2.53;;
71665;SDS011;59503;53.486;10.196;2024-03-23T02:27:16;17.07;;;2.80;;
71665;SDS011;59503;53.486;10.196;2024-03-23T02:29:41;30.38;;;2.95;;
71665;SDS011;59503;53.486;10.196;2024-03-23T02:32:07;27.17;;;2.83;;
71665;SDS011;59503;53.486;10.196;2024-03-23T02:34:34;16.75;;;2.10;;
71665;SDS011;59503;53.486;10.196;2024-03-23T02:37:00;23.48;;;2.25;;
71665;SDS011;59503;53.486;10.196;2024-03-23T02:39:25;28.53;;;2.47;;
71665;SDS011;59503;53.486;10.196;2024-03-23T02:41:50;29.30;;;3.43;;
71665;SDS011;59503;53.486;10.196;2024-03-23T02:44:16;24.60;;;3.03;;
71665;SDS011;59503;53.486;10.196;2024-03-23T02:46:42;32.95;;;3.15;;
71665;SDS011;59503;53.486;10.196;2024-03-23T02:49:07;28.67;;;3.23;;
71665;SDS011;59503;53.486;10.196;2024-03-23T02:51:33;15.93;;;2.30;;
71665;SDS011;59503;53.486;10.196;2024-03-23T02:53:58;12.83;;;1.80;;
71665;SDS011;59503;53.486;10.196;2024-03-23T02:56:23;20.13;;;2.20;;
71665;SDS011;59503;53.486;10.196;2024-03-23T02:58:49;25.50;;;3.30;;
71665;SDS011;59503;53.486;10.196;2024-03-23T03:01:14;15.75;;;2.60;;
71665;SDS011;59503;53.486;10.196;2024-03-23T03:03:41;15.43;;;2.07;;
71665;SDS011;59503;53.486;10.196;2024-03-23T03:06:06;17.63;;;2.47;;
71665;SDS011;59503;53.486;10.196;2024-03-23T03:08:31;12.80;;;1.83;;
71665;SDS011;59503;53.486;10.196;2024-03-23T03:10:57;13.53;;;2.70;;
71665;SDS011;59503;53.486;10.196;2024-03-23T03:13:22;14.70;;;1.70;;
71665;SDS011;59503;53.486;10.196;2024-03-23T03:15:47;16.10;;;1.80;;
71665;SDS011;59503;53.486;10.196;2024-03-23T03:18:13;18.17;;;2.28;;
71665;SDS011;59503;53.486;10.196;2024-03-23T03:20:41;8.57;;;2.10;;
71665;SDS011;59503;53.486;10.196;2024-03-23T03:23:07;9.05;;;2.00;;
71665;SDS011;59503;53.486;10.196;2024-03-23T03:25:32;10.57;;;1.80;;
71665;SDS011;59503;53.486;10.196;2024-03-23T03:27:58;17.05;;;1.98;;
71665;SDS011;59503;53.486;10.196;2024-03-23T03:30:24;14.27;;;2.30;;
71665;SDS011;59503;53.486;10.196;2024-03-23T03:32:49;17.30;;;2.63;;
71665;SDS011;59503;53.486;10.196;2024-03-23T03:35:16;14.10;;;1.77;;
71665;SDS011;59503;53.486;10.196;2024-03-23T03:37:41;14.43;;;2.53;;
71665;SDS011;59503;53.486;10.196;2024-03-23T03:40:07;13.13;;;2.80;;
71665;SDS011;59503;53.486;10.196;2024-03-23T03:42:34;17.20;;;2.33;;
71665;SDS011;59503;53.486;10.196;2024-03-23T03:45:00;19.23;;;2.73;;
71665;SDS011;59503;53.486;10.196;2024-03-23T03:47:25;16.05;;;1.95;;
71665;SDS011;59503;53.486;10.196;2024-03-23T03:49:51;12.67;;;1.93;;
71665;SDS011;59503;53.486;10.196;2024-03-23T03:52:16;14.63;;;2.40;;
71665;SDS011;59503;53.486;10.196;2024-03-23T03:54:41;17.45;;;2.08;;
71665;SDS011;59503;53.486;10.196;2024-03-23T03:57:07;20.50;;;2.50;;
71665;SDS011;59503;53.486;10.196;2024-03-23T03:59:32;16.77;;;1.87;;
71665;SDS011;59503;53.486;10.196;2024-03-23T04:01:58;17.83;;;2.33;;
71665;SDS011;59503;53.486;10.196;2024-03-23T04:04:23;26.70;;;2.77;;
71665;SDS011;59503;53.486;10.196;2024-03-23T04:06:48;10.55;;;2.20;;
71665;SDS011;59503;53.486;10.196;2024-03-23T04:09:14;17.00;;;2.40;;
71665;SDS011;59503;53.486;10.196;2024-03-23T04:11:40;18.13;;;2.20;;
71665;SDS011;59503;53.486;10.196;2024-03-23T04:14:05;17.53;;;2.47;;
71665;SDS011;59503;53.486;10.196;2024-03-23T04:16:33;13.67;;;1.43;;
71665;SDS011;59503;53.486;10.196;2024-03-23T04:19:00;29.40;;;2.17;;
71665;SDS011;59503;53.486;10.196;2024-03-23T04:21:25;9.70;;;1.77;;
71665;SDS011;59503;53.486;10.196;2024-03-23T04:23:51;17.57;;;2.03;;
71665;SDS011;59503;53.486;10.196;2024-03-23T04:26:17;16.88;;;1.92;;
71665;SDS011;59503;53.486;10.196;2024-03-23T04:28:42;10.97;;;1.97;;
71665;SDS011;59503;53.486;10.196;2024-03-23T04:31:08;25.27;;;3.20;;
71665;SDS011;59503;53.486;10.196;2024-03-23T04:33:33;26.23;;;3.37;;
71665;SDS011;59503;53.486;10.196;2024-03-23T04:35:59;22.70;;;2.93;;
71665;SDS011;59503;53.486;10.196;2024-03-23T04:38:24;25.40;;;2.70;;
71665;SDS011;59503;53.486;10.196;2024-03-23T04:40:53;26.87;;;3.23;;
71665;SDS011;59503;53.486;10.196;2024-03-23T04:43:20;15.48;;;2.85;;
71665;SDS011;59503;53.486;10.196;2024-03-23T04:45:45;18.27;;;2.97;;
71665;SDS011;59503;53.486;10.196;2024-03-23T04:48:11;26.67;;;2.87;;
71665;SDS011;59503;53.486;10.196;2024-03-23T04:50:36;17.48;;;2.97;;
71665;SDS011;59503;53.486;10.196;2024-03-23T04:53:02;27.67;;;3.30;;
71665;SDS011;59503;53.486;10.196;2024-03-23T04:55:27;29.60;;;4.43;;
71665;SDS011;59503;53.486;10.196;2024-03-23T04:57:53;23.70;;;2.67;;
71665;SDS011;59503;53.486;10.196;2024-03-23T05:00:19;11.87;;;1.93;;
71665;SDS011;59503;53.486;10.196;2024-03-23T05:02:44;21.73;;;3.20;;
71665;SDS011;59503;53.486;10.196;2024-03-23T05:05:10;23.77;;;3.23;;
71665;SDS011;59503;53.486;10.196;2024-03-23T05:07:37;24.48;;;2.63;;
71665;SDS011;59503;53.486;10.196;2024-03-23T05:10:02;15.48;;;2.38;;
71665;SDS011;59503;53.486;10.196;2024-03-23T05:12:28;15.70;;;2.77;;
71665;SDS011;59503;53.486;10.196;2024-03-23T05:14:54;18.63;;;2.20;;
71665;SDS011;59503;53.486;10.196;2024-03-23T05:17:19;15.25;;;2.72;;
71665;SDS011;59503;53.486;10.196;2024-03-23T05:19:44;15.30;;;3.13;;
71665;SDS011;59503;53.486;10.196;2024-03-23T05:22:10;17.20;;;3.17;;
71665;SDS011;59503;53.486;10.196;2024-03-23T05:24:35;16.63;;;2.83;;
71665;SDS011;59503;53.486;10.196;2024-03-23T05:27:00;15.07;;;2.53;;
71665;SDS011;59503;53.486;10.196;2024-03-23T05:29:26;13.30;;;2.83;;
71665;SDS011;59503;53.486;10.196;2024-03-23T05:31:51;22.23;;;2.53;;
71665;SDS011;59503;53.486;10.196;2024-03-23T05:34:17;20.42;;;3.13;;
71665;SDS011;59503;53.486;10.196;2024-03-23T05:36:43;20.33;;;2.67;;
71665;SDS011;59503;53.486;10.196;2024-03-23T05:39:08;13.93;;;2.93;;
71665;SDS011;59503;53.486;10.196;2024-03-23T05:41:34;17.90;;;2.58;;
71665;SDS011;59503;53.486;10.196;2024-03-23T05:44:01;17.50;;;2.27;;
71665;SDS011;59503;53.486;10.196;2024-03-23T05:46:27;19.77;;;2.30;;
71665;SDS011;59503;53.486;10.196;2024-03-23T05:48:53;19.63;;;2.60;;
71665;SDS011;59503;53.486;10.196;2024-03-23T05:51:19;14.13;;;2.90;;
71665;SDS011;59503;53.486;10.196;2024-03-23T05:53:44;21.47;;;2.83;;
71665;SDS011;59503;53.486;10.196;2024-03-23T05:56:10;27.03;;;2.90;;
71665;SDS011;59503;53.486;10.196;2024-03-23T05:58:35;19.13;;;2.80;;
71665;SDS011;59503;53.486;10.196;2024-03-23T06:01:01;18.67;;;2.80;;
71665;SDS011;59503;53.486;10.196;2024-03-23T06:03:27;23.77;;;2.63;;
71665;SDS011;59503;53.486;10.196;2024-03-23T06:05:53;21.60;;;2.83;;
71665;SDS011;59503;53.486;10.196;2024-03-23T06:08:19;26.77;;;3.05;;
71665;SDS011;59503;53.486;10.196;2024-03-23T06:10:45;25.70;;;3.33;;
71665;SDS011;59503;53.486;10.196;2024-03-23T06:13:11;28.88;;;3.95;;
71665;SDS011;59503;53.486;10.196;2024-03-23T06:15:37;23.73;;;3.55;;
71665;SDS011;59503;53.486;10.196;2024-03-23T06:18:03;21.00;;;3.47;;
71665;SDS011;59503;53.486;10.196;2024-03-23T06:20:29;20.42;;;4.15;;
71665;SDS011;59503;53.486;10.196;2024-03-23T06:22:55;22.15;;;2.85;;
71665;SDS011;59503;53.486;10.196;2024-03-23T06:25:21;15.95;;;2.75;;
71665;SDS011;59503;53.486;10.196;2024-03-23T06:27:46;31.37;;;3.37;;
71665;SDS011;59503;53.486;10.196;2024-03-23T06:30:12;29.27;;;3.33;;
71665;SDS011;59503;53.486;10.196;2024-03-23T06:32:38;15.90;;;2.70;;
71665;SDS011;59503;53.486;10.196;2024-03-23T06:35:03;29.50;;;2.77;;
71665;SDS011;59503;53.486;10.196;2024-03-23T06:37:33;15.70;;;2.53;;
71665;SDS011;59503;53.486;10.196;2024-03-23T06:39:59;33.15;;;3.38;;
71665;SDS011;59503;53.486;10.196;2024-03-23T06:42:24;26.47;;;3.17;;
71665;SDS011;59503;53.486;10.196;2024-03-23T06:44:50;22.87;;;3.63;;
71665;SDS011;59503;53.486;10.196;2024-03-23T06:47:15;17.13;;;2.70;;
71665;SDS011;59503;53.486;10.196;2024-03-23T06:49:41;20.43;;;3.33;;
71665;SDS011;59503;53.486;10.196;2024-03-23T06:52:06;27.20;;;3.65;;
71665;SDS011;59503;53.486;10.196;2024-03-23T06:54:32;26.67;;;3.87;;
71665;SDS011;59503;53.486;10.196;2024-03-23T06:56:57;26.83;;;3.60;;
71665;SDS011;59503;53.486;10.196;2024-03-23T06:59:22;21.57;;;3.17;;
71665;SDS011;59503;53.486;10.196;2024-03-23T07:01:48;25.75;;;3.40;;
71665;SDS011;59503;53.486;10.196;2024-03-23T07:04:13;22.87;;;2.60;;
71665;SDS011;59503;53.486;10.196;2024-03-23T07:06:42;14.60;;;2.77;;
71665;SDS011;59503;53.486;10.196;2024-03-23T07:09:09;15.20;;;2.47;;
71665;SDS011;59503;53.486;10.196;2024-03-23T07:11:34;21.37;;;3.90;;
71665;SDS011;59503;53.486;10.196;2024-03-23T07:13:59;20.30;;;2.63;;
71665;SDS011;59503;53.486;10.196;2024-03-23T07:16:26;14.88;;;2.53;;
71665;SDS011;59503;53.486;10.196;2024-03-23T07:18:52;14.13;;;2.33;;
71665;SDS011;59503;53.486;10.196;2024-03-23T07:21:17;20.75;;;3.20;;
71665;SDS011;59503;53.486;10.196;2024-03-23T07:23:42;14.33;;;2.27;;
71665;SDS011;59503;53.486;10.196;2024-03-23T07:26:11;19.65;;;3.13;;
71665;SDS011;59503;53.486;10.196;2024-03-23T07:28:37;11.93;;;2.40;;
71665;SDS011;59503;53.486;10.196;2024-03-23T07:31:07;18.08;;;2.65;;
71665;SDS011;59503;53.486;10.196;2024-03-23T07:33:34;27.40;;;2.65;;
71665;SDS011;59503;53.486;10.196;2024-03-23T07:36:01;13.60;;;2.42;;
71665;SDS011;59503;53.486;10.196;2024-03-23T07:38:27;20.37;;;2.13;;
71665;SDS011;59503;53.486;10.196;2024-03-23T07:41:03;19.60;;;2.30;;
71665;SDS011;59503;53.486;10.196;2024-03-23T07:43:32;14.45;;;2.40;;
71665;SDS011;59503;53.486;10.196;2024-03-23T07:45:58;16.15;;;2.25;;
71665;SDS011;59503;53.486;10.196;2024-03-23T07:48:25;24.70;;;2.83;;
71665;SDS011;59503;53.486;10.196;2024-03-23T07:53:21;12.95;;;2.28;;
71665;SDS011;59503;53.486;10.196;2024-03-23T07:56:00;15.57;;;2.65;;
71665;SDS011;59503;53.486;10.196;2024-03-23T07:58:27;16.87;;;2.57;;
71665;SDS011;59503;53.486;10.196;2024-03-23T08:00:53;19.05;;;3.22;;
71665;SDS011;59503;53.486;10.196;2024-03-23T08:03:18;25.23;;;2.35;;
71665;SDS011;59503;53.486;10.196;2024-03-23T08:05:44;19.60;;;2.83;;
71665;SDS011;59503;53.486;10.196;2024-03-23T08:08:10;13.70;;;2.20;;
71665;SDS011;59503;53.486;10.196;2024-03-23T08:10:36;18.55;;;1.90;;
71665;SDS011;59503;53.486;10.196;2024-03-23T08:13:14;17.30;;;2.30;;
71665;SDS011;59503;53.486;10.196;2024-03-23T08:15:41;13.47;;;2.80;;
71665;SDS011;59503;53.486;10.196;2024-03-23T08:18:06;11.00;;;2.08;;
71665;SDS011;59503;53.486;10.196;2024-03-23T08:20:32;11.33;;;2.00;;
71665;SDS011;59503;53.486;10.196;2024-03-23T08:22:57;12.80;;;1.90;;
71665;SDS011;59503;53.486;10.196;2024-03-23T08:25:22;11.70;;;2.37;;
71665;SDS011;59503;53.486;10.196;2024-03-23T08:27:48;12.90;;;2.33;;
71665;SDS011;59503;53.486;10.196;2024-03-23T08:30:13;16.13;;;2.60;;
71665;SDS011;59503;53.486;10.196;2024-03-23T08:32:39;17.33;;;2.60;;
71665;SDS011;59503;53.486;10.196;2024-03-23T08:35:04;10.33;;;2.00;;
71665;SDS011;59503;53.486;10.196;2024-03-23T08:37:30;9.77;;;2.40;;
71665;SDS011;59503;53.486;10.196;2024-03-23T08:39:55;14.48;;;2.50;;
71665;SDS011;59503;53.486;10.196;2024-03-23T08:42:21;16.77;;;1.83;;
71665;SDS011;59503;53.486;10.196;2024-03-23T08:44:47;13.07;;;2.43;;
71665;SDS011;59503;53.486;10.196;2024-03-23T08:47:14;14.23;;;2.03;;
71665;SDS011;59503;53.486;10.196;2024-03-23T08:49:44;15.13;;;2.57;;
71665;SDS011;59503;53.486;10.196;2024-03-23T08:52:10;13.75;;;2.35;;
71665;SDS011;59503;53.486;10.196;2024-03-23T08:54:35;15.30;;;2.63;;
71665;SDS011;59503;53.486;10.196;2024-03-23T08:57:01;12.83;;;2.13;;
71665;SDS011;59503;53.486;10.196;2024-03-23T08:59:26;17.37;;;2.00;;
71665;SDS011;59503;53.486;10.196;2024-03-23T09:01:52;12.77;;;2.10;;
71665;SDS011;59503;53.486;10.196;2024-03-23T09:04:18;15.20;;;2.40;;
71665;SDS011;59503;53.486;10.196;2024-03-23T09:06:44;13.85;;;2.63;;
71665;SDS011;59503;53.486;10.196;2024-03-23T09:09:09;10.90;;;1.90;;
71665;SDS011;59503;53.486;10.196;2024-03-23T09:11:34;17.17;;;2.77;;
71665;SDS011;59503;53.486;10.196;2024-03-23T09:14:00;17.10;;;2.55;;
71665;SDS011;59503;53.486;10.196;2024-03-23T09:16:26;12.60;;;1.90;;
71665;SDS011;59503;53.486;10.196;2024-03-23T09:18:51;12.10;;;1.50;;
71665;SDS011;59503;53.486;10.196;2024-03-23T09:21:17;12.93;;;1.67;;
71665;SDS011;59503;53.486;10.196;2024-03-23T09:23:43;11.95;;;2.20;;
71665;SDS011;59503;53.486;10.196;2024-03-23T09:26:09;11.80;;;1.58;;
71665;SDS011;59503;53.486;10.196;2024-03-23T09:28:34;16.07;;;2.07;;
71665;SDS011;59503;53.486;10.196;2024-03-23T09:31:07;11.27;;;1.60;;
71665;SDS011;59503;53.486;10.196;2024-03-23T09:33:34;15.55;;;2.17;;
71665;SDS011;59503;53.486;10.196;2024-03-23T09:36:03;9.07;;;1.70;;
71665;SDS011;59503;53.486;10.196;2024-03-23T09:38:29;12.98;;;1.77;;
71665;SDS011;59503;53.486;10.196;2024-03-23T09:40:55;9.37;;;1.23;;
71665;SDS011;59503;53.486;10.196;2024-03-23T09:43:22;14.05;;;1.33;;
71665;SDS011;59503;53.486;10.196;2024-03-23T09:45:47;15.50;;;1.83;;
71665;SDS011;59503;53.486;10.196;2024-03-23T09:48:14;11.18;;;2.08;;
71665;SDS011;59503;53.486;10.196;2024-03-23T09:50:41;10.45;;;1.88;;
71665;SDS011;59503;53.486;10.196;2024-03-23T09:53:07;9.25;;;1.55;;
71665;SDS011;59503;53.486;10.196;2024-03-23T09:55:34;12.18;;;1.27;;
71665;SDS011;59503;53.486;10.196;2024-03-23T09:58:01;10.47;;;1.70;;
71665;SDS011;59503;53.486;10.196;2024-03-23T10:00:27;12.57;;;1.50;;
71665;SDS011;59503;53.486;10.196;2024-03-23T10:02:54;10.68;;;1.73;;
71665;SDS011;59503;53.486;10.196;2024-03-23T10:05:21;9.17;;;1.37;;
71665;SDS011;59503;53.486;10.196;2024-03-23T10:07:51;7.13;;;1.48;;
71665;SDS011;59503;53.486;10.196;2024-03-23T10:10:17;9.35;;;1.42;;
71665;SDS011;59503;53.486;10.196;2024-03-23T10:12:46;9.98;;;1.60;;
71665;SDS011;59503;53.486;10.196;2024-03-23T10:15:19;7.32;;;1.40;;
71665;SDS011;59503;53.486;10.196;2024-03-23T10:17:47;6.93;;;1.53;;
71665;SDS011;59503;53.486;10.196;2024-03-23T10:20:13;9.25;;;1.10;;
71665;SDS011;59503;53.486;10.196;2024-03-23T10:22:43;5.55;;;1.00;;
71665;SDS011;59503;53.486;10.196;2024-03-23T10:25:09;6.67;;;1.10;;
71665;SDS011;59503;53.486;10.196;2024-03-23T10:27:36;6.82;;;1.52;;
71665;SDS011;59503;53.486;10.196;2024-03-23T10:30:08;8.20;;;1.27;;
71665;SDS011;59503;53.486;10.196;2024-03-23T10:32:38;11.57;;;1.30;;
71665;SDS011;59503;53.486;10.196;2024-03-23T10:35:16;15.65;;;1.77;;
71665;SDS011;59503;53.486;10.196;2024-03-23T10:37:44;14.05;;;1.40;;
71665;SDS011;59503;53.486;10.196;2024-03-23T10:40:11;11.00;;;1.50;;
71665;SDS011;59503;53.486;10.196;2024-03-23T10:42:37;10.25;;;1.42;;
71665;SDS011;59503;53.486;10.196;2024-03-23T10:45:04;12.90;;;1.50;;
71665;SDS011;59503;53.486;10.196;2024-03-23T10:47:31;12.40;;;1.52;;
71665;SDS011;59503;53.486;10.196;2024-03-23T10:49:57;8.38;;;1.58;;
71665;SDS011;59503;53.486;10.196;2024-03-23T10:52:22;8.13;;;0.90;;
71665;SDS011;59503;53.486;10.196;2024-03-23T10:54:50;8.32;;;1.10;;
71665;SDS011;59503;53.486;10.196;2024-03-23T10:57:17;6.05;;;1.20;;
71665;SDS011;59503;53.486;10.196;2024-03-23T10:59:52;9.93;;;1.10;;
71665;SDS011;59503;53.486;10.196;2024-03-23T11:02:21;11.27;;;1.20;;
71665;SDS011;59503;53.486;10.196;2024-03-23T11:04:47;5.38;;;0.80;;
71665;SDS011;59503;53.486;10.196;2024-03-23T11:09:54;8.30;;;0.98;;
71665;SDS011;59503;53.486;10.196;2024-03-23T11:14:48;5.72;;;0.80;;
71665;SDS011;59503;53.486;10.196;2024-03-23T11:17:21;8.55;;;0.93;;
71665;SDS011;59503;53.486;10.196;2024-03-23T11:20:00;8.45;;;0.80;;
71665;SDS011;59503;53.486;10.196;2024-03-23T11:25:20;6.90;;;0.73;;
71665;SDS011;59503;53.486;10.196;2024-03-23T11:27:49;5.80;;;0.80;;
71665;SDS011;59503;53.486;10.196;2024-03-23T11:30:34;2.85;;;0.55;;
71665;SDS011;59503;53.486;10.196;2024-03-23T11:32:59;5.47;;;0.52;;
71665;SDS011;59503;53.486;10.196;2024-03-23T11:40:32;5.68;;;0.80;;
71665;SDS011;59503;53.486;10.196;2024-03-23T11:42:59;7.07;;;0.90;;
71665;SDS011;59503;53.486;10.196;2024-03-23T11:45:26;7.07;;;0.80;;
71665;SDS011;59503;53.486;10.196;2024-03-23T11:48:02;6.77;;;1.20;;
71665;SDS011;59503;53.486;10.196;2024-03-23T11:50:29;9.80;;;1.17;;
71665;SDS011;59503;53.486;10.196;2024-03-23T11:53:05;10.60;;;1.02;;
71665;SDS011;59503;53.486;10.196;2024-03-23T11:55:53;5.20;;;0.70;;
71665;SDS011;59503;53.486;10.196;2024-03-23T11:58:19;11.82;;;1.30;;
71665;SDS011;59503;53.486;10.196;2024-03-23T12:00:56;6.18;;;1.00;;
71665;SDS011;59503;53.486;10.196;2024-03-23T12:03:22;7.40;;;0.93;;
71665;SDS011;59503;53.486;10.196;2024-03-23T12:05:53;4.70;;;0.63;;
71665;SDS011;59503;53.486;10.196;2024-03-23T12:08:21;5.73;;;0.73;;
71665;SDS011;59503;53.486;10.196;2024-03-23T12:10:49;7.78;;;0.90;;
71665;SDS011;59503;53.486;10.196;2024-03-23T12:13:19;5.05;;;0.70;;
71665;SDS011;59503;53.486;10.196;2024-03-23T12:15:46;3.28;;;0.68;;
71665;SDS011;59503;53.486;10.196;2024-03-23T12:18:12;6.75;;;0.70;;
71665;SDS011;59503;53.486;10.196;2024-03-23T12:20:38;2.70;;;0.63;;
71665;SDS011;59503;53.486;10.196;2024-03-23T12:23:05;3.53;;;0.65;;
71665;SDS011;59503;53.486;10.196;2024-03-23T12:25:31;3.63;;;0.90;;
71665;SDS011;59503;53.486;10.196;2024-03-23T12:27:59;5.40;;;1.57;;
71665;SDS011;59503;53.486;10.196;2024-03-23T12:30:25;5.25;;;0.95;;
71665;SDS011;59503;53.486;10.196;2024-03-23T12:32:50;3.70;;;1.63;;
71665;SDS011;59503;53.486;10.196;2024-03-23T12:35:16;2.72;;;0.60;;
71665;SDS011;59503;53.486;10.196;2024-03-23T12:37:41;5.40;;;0.90;;
71665;SDS011;59503;53.486;10.196;2024-03-23T12:40:07;6.07;;;0.70;;
71665;SDS011;59503;53.486;10.196;2024-03-23T12:42:33;5.63;;;0.73;;
71665;SDS011;59503;53.486;10.196;2024-03-23T12:44:58;1.60;;;0.30;;
71665;SDS011;59503;53.486;10.196;2024-03-23T12:47:23;4.70;;;0.67;;
71665;SDS011;59503;53.486;10.196;2024-03-23T12:49:49;4.73;;;0.60;;
71665;SDS011;59503;53.486;10.196;2024-03-23T12:52:14;3.88;;;0.55;;
71665;SDS011;59503;53.486;10.196;2024-03-23T12:54:40;2.63;;;0.40;;
71665;SDS011;59503;53.486;10.196;2024-03-23T12:57:05;3.23;;;0.50;;
71665;SDS011;59503;53.486;10.196;2024-03-23T12:59:31;4.07;;;0.50;;
71665;SDS011;59503;53.486;10.196;2024-03-23T13:01:57;2.30;;;0.30;;
71665;SDS011;59503;53.486;10.196;2024-03-23T13:04:22;4.63;;;0.63;;
71665;SDS011;59503;53.486;10.196;2024-03-23T13:06:48;1.60;;;0.50;;
71665;SDS011;59503;53.486;10.196;2024-03-23T13:09:13;1.80;;;0.30;;
71665;SDS011;59503;53.486;10.196;2024-03-23T13:11:39;2.35;;;0.40;;
71665;SDS011;59503;53.486;10.196;2024-03-23T13:14:04;2.80;;;0.70;;
71665;SDS011;59503;53.486;10.196;2024-03-23T13:16:30;3.37;;;0.60;;
71665;SDS011;59503;53.486;10.196;2024-03-23T13:18:56;6.65;;;0.50;;
71665;SDS011;59503;53.486;10.196;2024-03-23T13:21:21;3.83;;;0.87;;
71665;SDS011;59503;53.486;10.196;2024-03-23T13:23:47;2.42;;;0.57;;
71665;SDS011;59503;53.486;10.196;2024-03-23T13:26:15;2.60;;;0.80;;
71665;SDS011;59503;53.486;10.196;2024-03-23T13:28:40;3.00;;;0.60;;
71665;SDS011;59503;53.486;10.196;2024-03-23T13:31:06;4.28;;;0.95;;
71665;SDS011;59503;53.486;10.196;2024-03-23T13:33:33;5.90;;;0.60;;
71665;SDS011;59503;53.486;10.196;2024-03-23T13:35:59;5.00;;;0.90;;
71665;SDS011;59503;53.486;10.196;2024-03-23T13:38:24;4.97;;;0.40;;
71665;SDS011;59503;53.486;10.196;2024-03-23T13:40:53;3.13;;;0.50;;
71665;SDS011;59503;53.486;10.196;2024-03-23T13:43:21;3.33;;;0.55;;
71665;SDS011;59503;53.486;10.196;2024-03-23T13:45:47;2.90;;;0.30;;
71665;SDS011;59503;53.486;10.196;2024-03-23T13:48:14;2.55;;;0.47;;
71665;SDS011;59503;53.486;10.196;2024-03-23T13:50:40;2.45;;;0.70;;
71665;SDS011;59503;53.486;10.196;2024-03-23T13:53:06;0.93;;;0.40;;
71665;SDS011;59503;53.486;10.196;2024-03-23T13:55:33;2.85;;;0.50;;
71665;SDS011;59503;53.486;10.196;2024-03-23T13:57:58;3.83;;;0.53;;
71665;SDS011;59503;53.486;10.196;2024-03-23T14:00:23;1.90;;;0.40;;
71665;SDS011;59503;53.486;10.196;2024-03-23T14:02:49;1.73;;;0.35;;
71665;SDS011;59503;53.486;10.196;2024-03-23T14:05:14;2.43;;;0.50;;
71665;SDS011;59503;53.486;10.196;2024-03-23T14:07:40;3.00;;;0.30;;
71665;SDS011;59503;53.486;10.196;2024-03-23T14:10:05;2.40;;;0.40;;
71665;SDS011;59503;53.486;10.196;2024-03-23T14:12:32;6.35;;;0.40;;
71665;SDS011;59503;53.486;10.196;2024-03-23T14:14:57;1.42;;;0.35;;
71665;SDS011;59503;53.486;10.196;2024-03-23T14:17:23;1.40;;;0.47;;
71665;SDS011;59503;53.486;10.196;2024-03-23T14:19:48;3.83;;;0.60;;
71665;SDS011;59503;53.486;10.196;2024-03-23T14:22:15;0.57;;;0.30;;
71665;SDS011;59503;53.486;10.196;2024-03-23T14:24:44;3.35;;;0.50;;
71665;SDS011;59503;53.486;10.196;2024-03-23T14:27:09;0.87;;;0.30;;
71665;SDS011;59503;53.486;10.196;2024-03-23T14:29:35;3.07;;;0.50;;
71665;SDS011;59503;53.486;10.196;2024-03-23T14:32:00;2.30;;;0.40;;
71665;SDS011;59503;53.486;10.196;2024-03-23T14:34:26;6.97;;;0.43;;
71665;SDS011;59503;53.486;10.196;2024-03-23T14:36:53;1.90;;;0.57;;
71665;SDS011;59503;53.486;10.196;2024-03-23T14:39:22;2.53;;;0.40;;
71665;SDS011;59503;53.486;10.196;2024-03-23T14:41:49;2.33;;;0.57;;
71665;SDS011;59503;53.486;10.196;2024-03-23T14:44:15;2.03;;;0.55;;
71665;SDS011;59503;53.486;10.196;2024-03-23T14:46:40;2.73;;;0.60;;
71665;SDS011;59503;53.486;10.196;2024-03-23T14:49:06;4.78;;;0.40;;
71665;SDS011;59503;53.486;10.196;2024-03-23T14:51:32;5.13;;;0.60;;
71665;SDS011;59503;53.486;10.196;2024-03-23T14:53:58;3.33;;;0.80;;
71665;SDS011;59503;53.486;10.196;2024-03-23T14:56:24;2.25;;;0.40;;
71665;SDS011;59503;53.486;10.196;2024-03-23T14:58:52;2.87;;;0.40;;
71665;SDS011;59503;53.486;10.196;2024-03-23T15:01:17;2.30;;;0.75;;
71665;SDS011;59503;53.486;10.196;2024-03-23T15:03:44;3.90;;;0.77;;
71665;SDS011;59503;53.486;10.196;2024-03-23T15:06:09;7.33;;;0.50;;
71665;SDS011;59503;53.486;10.196;2024-03-23T15:08:35;5.47;;;0.63;;
71665;SDS011;59503;53.486;10.196;2024-03-23T15:11:02;5.13;;;0.52;;
71665;SDS011;59503;53.486;10.196;2024-03-23T15:13:37;4.87;;;0.53;;
71665;SDS011;59503;53.486;10.196;2024-03-23T15:16:04;5.78;;;0.60;;
71665;SDS011;59503;53.486;10.196;2024-03-23T15:18:30;3.75;;;0.70;;
71665;SDS011;59503;53.486;10.196;2024-03-23T15:20:58;6.20;;;0.93;;
71665;SDS011;59503;53.486;10.196;2024-03-23T15:23:31;5.20;;;0.75;;
71665;SDS011;59503;53.486;10.196;2024-03-23T15:25:57;4.53;;;0.90;;
71665;SDS011;59503;53.486;10.196;2024-03-23T15:28:23;8.23;;;0.80;;
71665;SDS011;59503;53.486;10.196;2024-03-23T15:30:53;8.13;;;0.88;;